sensor_id;sensor_type;location;lat;lon;timestamp;temperature;humidity
3035;DHT22;1527;48.836;9.172;2022-08-01T00:00:18;25.20;93.70
3035;DHT22;1527;48.836;9.172;2022-08-01T00:02:47;25.20;93.80
3035;DHT22;1527;48.836;9.172;2022-08-01T00:05:17;25.20;93.80
3035;DHT22;1527;48.836;9.172;2022-08-01T00:07:46;25.20;93.90
3035;DHT22;1527;48.836;9.172;2022-08-01T00:10:17;25.20;93.90
3035;DHT22;1527;48.836;9.172;2022-08-01T00:12:48;25.20;93.90
3035;DHT22;1527;48.836;9.172;2022-08-01T00:15:17;25.20;94.00
3035;DHT22;1527;48.836;9.172;2022-08-01T00:17:47;25.20;94.00
3035;DHT22;1527;48.836;9.172;2022-08-01T00:20:16;25.20;94.10
3035;DHT22;1527;48.836;9.172;2022-08-01T00:22:45;25.10;94.20
3035;DHT22;1527;48.836;9.172;2022-08-01T00:25:15;25.10;94.40
3035;DHT22;1527;48.836;9.172;2022-08-01T00:27:44;25.10;94.50
3035;DHT22;1527;48.836;9.172;2022-08-01T00:30:15;25.00;94.60
3035;DHT22;1527;48.836;9.172;2022-08-01T00:32:44;25.00;94.60
3035;DHT22;1527;48.836;9.172;2022-08-01T00:35:14;25.00;95.10
3035;DHT22;1527;48.836;9.172;2022-08-01T00:37:44;24.90;94.90
3035;DHT22;1527;48.836;9.172;2022-08-01T00:40:13;24.70;95.10
3035;DHT22;1527;48.836;9.172;2022-08-01T00:42:42;24.70;95.30
3035;DHT22;1527;48.836;9.172;2022-08-01T00:45:11;24.70;95.40
3035;DHT22;1527;48.836;9.172;2022-08-01T00:47:42;24.80;95.50
3035;DHT22;1527;48.836;9.172;2022-08-01T00:50:11;24.70;95.50
3035;DHT22;1527;48.836;9.172;2022-08-01T00:52:42;24.60;95.70
3035;DHT22;1527;48.836;9.172;2022-08-01T00:55:18;24.70;95.80
3035;DHT22;1527;48.836;9.172;2022-08-01T00:57:48;24.70;95.90
3035;DHT22;1527;48.836;9.172;2022-08-01T01:00:33;24.60;96.10
3035;DHT22;1527;48.836;9.172;2022-08-01T01:03:23;24.60;96.30
3035;DHT22;1527;48.836;9.172;2022-08-01T01:09:15;24.50;96.60
3035;DHT22;1527;48.836;9.172;2022-08-01T01:11:59;24.50;96.80
3035;DHT22;1527;48.836;9.172;2022-08-01T01:14:38;24.50;97.00
3035;DHT22;1527;48.836;9.172;2022-08-01T01:17:17;24.50;97.10
3035;DHT22;1527;48.836;9.172;2022-08-01T01:20:13;24.50;97.30
3035;DHT22;1527;48.836;9.172;2022-08-01T01:22:53;24.50;97.50
3035;DHT22;1527;48.836;9.172;2022-08-01T01:25:51;24.50;97.70
3035;DHT22;1527;48.836;9.172;2022-08-01T01:28:40;24.60;97.90
3035;DHT22;1527;48.836;9.172;2022-08-01T01:31:27;24.40;98.20
3035;DHT22;1527;48.836;9.172;2022-08-01T01:33:58;24.40;98.40
3035;DHT22;1527;48.836;9.172;2022-08-01T01:36:30;24.40;98.70
3035;DHT22;1527;48.836;9.172;2022-08-01T01:39:00;24.30;98.80
3035;DHT22;1527;48.836;9.172;2022-08-01T01:41:30;24.30;99.00
3035;DHT22;1527;48.836;9.172;2022-08-01T01:44:02;24.40;99.10
3035;DHT22;1527;48.836;9.172;2022-08-01T01:46:32;24.40;99.20
3035;DHT22;1527;48.836;9.172;2022-08-01T01:49:03;24.30;99.30
3035;DHT22;1527;48.836;9.172;2022-08-01T01:51:33;24.30;99.40
3035;DHT22;1527;48.836;9.172;2022-08-01T01:54:04;24.30;99.60
3035;DHT22;1527;48.836;9.172;2022-08-01T01:56:35;24.30;99.80
3035;DHT22;1527;48.836;9.172;2022-08-01T01:59:20;24.30;99.90
3035;DHT22;1527;48.836;9.172;2022-08-01T02:02:09;24.30;99.90
3035;DHT22;1527;48.836;9.172;2022-08-01T02:04:42;24.30;99.90
3035;DHT22;1527;48.836;9.172;2022-08-01T02:07:16;24.20;99.90
3035;DHT22;1527;48.836;9.172;2022-08-01T02:09:48;24.10;99.90
3035;DHT22;1527;48.836;9.172;2022-08-01T02:12:19;24.10;99.90
3035;DHT22;1527;48.836;9.172;2022-08-01T02:14:53;24.10;99.90
3035;DHT22;1527;48.836;9.172;2022-08-01T02:17:24;24.10;99.90
3035;DHT22;1527;48.836;9.172;2022-08-01T02:19:54;24.10;99.90
3035;DHT22;1527;48.836;9.172;2022-08-01T02:22:29;24.10;99.90
3035;DHT22;1527;48.836;9.172;2022-08-01T02:25:06;24.10;99.90
3035;DHT22;1527;48.836;9.172;2022-08-01T02:27:42;24.10;99.90
3035;DHT22;1527;48.836;9.172;2022-08-01T02:30:19;24.20;99.90
3035;DHT22;1527;48.836;9.172;2022-08-01T02:32:51;24.10;99.90
3035;DHT22;1527;48.836;9.172;2022-08-01T02:35:28;24.20;99.90
3035;DHT22;1527;48.836;9.172;2022-08-01T02:38:01;24.20;99.90
3035;DHT22;1527;48.836;9.172;2022-08-01T02:40:34;24.20;99.90
3035;DHT22;1527;48.836;9.172;2022-08-01T02:43:08;24.20;99.90
3035;DHT22;1527;48.836;9.172;2022-08-01T02:45:43;24.20;99.90
3035;DHT22;1527;48.836;9.172;2022-08-01T02:48:17;24.10;99.90
3035;DHT22;1527;48.836;9.172;2022-08-01T02:50:49;24.00;99.90
3035;DHT22;1527;48.836;9.172;2022-08-01T02:53:23;23.90;99.90
3035;DHT22;1527;48.836;9.172;2022-08-01T02:56:12;23.90;99.90
3035;DHT22;1527;48.836;9.172;2022-08-01T02:58:42;24.00;99.90
3035;DHT22;1527;48.836;9.172;2022-08-01T03:01:15;23.90;99.90
3035;DHT22;1527;48.836;9.172;2022-08-01T03:03:46;23.90;99.90
3035;DHT22;1527;48.836;9.172;2022-08-01T03:06:17;23.80;99.90
3035;DHT22;1527;48.836;9.172;2022-08-01T03:08:47;23.80;99.90
3035;DHT22;1527;48.836;9.172;2022-08-01T03:11:17;23.70;99.90
3035;DHT22;1527;48.836;9.172;2022-08-01T03:13:48;23.70;99.90
3035;DHT22;1527;48.836;9.172;2022-08-01T03:16:20;23.70;99.90
3035;DHT22;1527;48.836;9.172;2022-08-01T03:19:20;23.70;99.90
3035;DHT22;1527;48.836;9.172;2022-08-01T03:21:58;23.70;99.90
3035;DHT22;1527;48.836;9.172;2022-08-01T03:24:31;23.70;99.90
3035;DHT22;1527;48.836;9.172;2022-08-01T03:27:03;23.80;99.90
3035;DHT22;1527;48.836;9.172;2022-08-01T03:29:33;23.70;99.90
3035;DHT22;1527;48.836;9.172;2022-08-01T03:32:05;23.70;99.90
3035;DHT22;1527;48.836;9.172;2022-08-01T03:34:35;23.70;99.90
3035;DHT22;1527;48.836;9.172;2022-08-01T03:37:07;23.60;99.90
3035;DHT22;1527;48.836;9.172;2022-08-01T03:39:44;23.60;99.90
3035;DHT22;1527;48.836;9.172;2022-08-01T03:42:19;23.50;99.90
3035;DHT22;1527;48.836;9.172;2022-08-01T03:44:53;23.50;99.90
3035;DHT22;1527;48.836;9.172;2022-08-01T03:47:29;23.50;99.90
3035;DHT22;1527;48.836;9.172;2022-08-01T03:50:09;23.50;99.90
3035;DHT22;1527;48.836;9.172;2022-08-01T03:52:42;23.60;99.90
3035;DHT22;1527;48.836;9.172;2022-08-01T03:55:13;23.60;99.90
3035;DHT22;1527;48.836;9.172;2022-08-01T03:57:45;23.60;99.90
3035;DHT22;1527;48.836;9.172;2022-08-01T04:00:15;23.50;99.90
3035;DHT22;1527;48.836;9.172;2022-08-01T04:02:48;23.40;99.90
3035;DHT22;1527;48.836;9.172;2022-08-01T04:05:18;23.40;99.90
3035;DHT22;1527;48.836;9.172;2022-08-01T04:07:49;23.30;99.90
3035;DHT22;1527;48.836;9.172;2022-08-01T04:10:23;23.30;99.90
3035;DHT22;1527;48.836;9.172;2022-08-01T04:12:53;23.40;99.90
3035;DHT22;1527;48.836;9.172;2022-08-01T04:15:22;23.20;99.90
3035;DHT22;1527;48.836;9.172;2022-08-01T04:17:53;23.10;99.90
3035;DHT22;1527;48.836;9.172;2022-08-01T04:20:23;23.10;99.90
3035;DHT22;1527;48.836;9.172;2022-08-01T04:22:52;23.00;99.90
3035;DHT22;1527;48.836;9.172;2022-08-01T04:25:32;23.10;99.90
3035;DHT22;1527;48.836;9.172;2022-08-01T04:28:04;23.20;99.90
3035;DHT22;1527;48.836;9.172;2022-08-01T04:30:38;23.10;99.90
3035;DHT22;1527;48.836;9.172;2022-08-01T04:33:20;22.90;99.90
3035;DHT22;1527;48.836;9.172;2022-08-01T04:35:51;22.90;99.90
3035;DHT22;1527;48.836;9.172;2022-08-01T04:38:34;22.70;99.90
3035;DHT22;1527;48.836;9.172;2022-08-01T04:41:05;22.80;99.90
3035;DHT22;1527;48.836;9.172;2022-08-01T04:43:36;22.80;99.90
3035;DHT22;1527;48.836;9.172;2022-08-01T04:46:07;22.80;99.90
3035;DHT22;1527;48.836;9.172;2022-08-01T04:48:38;23.00;99.90
3035;DHT22;1527;48.836;9.172;2022-08-01T04:51:14;23.10;99.90
3035;DHT22;1527;48.836;9.172;2022-08-01T04:53:44;23.30;99.90
3035;DHT22;1527;48.836;9.172;2022-08-01T04:56:14;23.60;99.90
3035;DHT22;1527;48.836;9.172;2022-08-01T04:58:44;24.00;99.90
3035;DHT22;1527;48.836;9.172;2022-08-01T05:01:13;24.60;99.90
3035;DHT22;1527;48.836;9.172;2022-08-01T05:03:44;25.20;99.90
3035;DHT22;1527;48.836;9.172;2022-08-01T05:06:14;26.00;99.90
3035;DHT22;1527;48.836;9.172;2022-08-01T05:08:43;26.70;99.90
3035;DHT22;1527;48.836;9.172;2022-08-01T05:11:13;27.40;99.90
3035;DHT22;1527;48.836;9.172;2022-08-01T05:13:51;28.10;99.90
3035;DHT22;1527;48.836;9.172;2022-08-01T05:16:22;28.80;99.90
3035;DHT22;1527;48.836;9.172;2022-08-01T05:18:59;29.30;99.90
3035;DHT22;1527;48.836;9.172;2022-08-01T05:21:30;29.70;99.90
3035;DHT22;1527;48.836;9.172;2022-08-01T05:23:59;30.10;99.90
3035;DHT22;1527;48.836;9.172;2022-08-01T05:26:28;30.30;99.90
3035;DHT22;1527;48.836;9.172;2022-08-01T05:29:03;30.40;99.90
3035;DHT22;1527;48.836;9.172;2022-08-01T05:31:34;30.50;99.90
3035;DHT22;1527;48.836;9.172;2022-08-01T05:34:04;30.60;99.90
3035;DHT22;1527;48.836;9.172;2022-08-01T05:36:41;30.80;99.90
3035;DHT22;1527;48.836;9.172;2022-08-01T05:39:11;30.90;99.90
3035;DHT22;1527;48.836;9.172;2022-08-01T05:41:42;30.90;99.90
3035;DHT22;1527;48.836;9.172;2022-08-01T05:44:11;31.00;99.80
3035;DHT22;1527;48.836;9.172;2022-08-01T05:46:40;31.20;99.70
3035;DHT22;1527;48.836;9.172;2022-08-01T05:49:11;31.40;99.80
3035;DHT22;1527;48.836;9.172;2022-08-01T05:51:40;31.40;99.20
3035;DHT22;1527;48.836;9.172;2022-08-01T05:54:10;31.50;99.20
3035;DHT22;1527;48.836;9.172;2022-08-01T05:56:39;31.30;98.70
3035;DHT22;1527;48.836;9.172;2022-08-01T05:59:08;31.10;99.20
3035;DHT22;1527;48.836;9.172;2022-08-01T06:01:38;31.10;99.90
3035;DHT22;1527;48.836;9.172;2022-08-01T06:04:12;30.80;99.80
3035;DHT22;1527;48.836;9.172;2022-08-01T06:06:42;30.80;99.90
3035;DHT22;1527;48.836;9.172;2022-08-01T06:09:11;30.70;99.90
3035;DHT22;1527;48.836;9.172;2022-08-01T06:11:41;30.60;99.90
3035;DHT22;1527;48.836;9.172;2022-08-01T06:14:10;30.60;99.90
3035;DHT22;1527;48.836;9.172;2022-08-01T06:16:39;30.60;99.80
3035;DHT22;1527;48.836;9.172;2022-08-01T06:19:09;30.60;99.90
3035;DHT22;1527;48.836;9.172;2022-08-01T06:21:39;30.60;99.90
3035;DHT22;1527;48.836;9.172;2022-08-01T06:24:09;30.70;99.90
3035;DHT22;1527;48.836;9.172;2022-08-01T06:26:38;30.70;99.90
3035;DHT22;1527;48.836;9.172;2022-08-01T06:29:07;30.80;99.90
3035;DHT22;1527;48.836;9.172;2022-08-01T06:31:36;30.70;99.90
3035;DHT22;1527;48.836;9.172;2022-08-01T06:34:06;30.60;99.90
3035;DHT22;1527;48.836;9.172;2022-08-01T06:36:35;30.70;99.90
3035;DHT22;1527;48.836;9.172;2022-08-01T06:39:06;30.60;99.90
3035;DHT22;1527;48.836;9.172;2022-08-01T06:41:35;30.50;99.90
3035;DHT22;1527;48.836;9.172;2022-08-01T06:44:07;30.50;99.90
3035;DHT22;1527;48.836;9.172;2022-08-01T06:46:36;30.40;99.90
3035;DHT22;1527;48.836;9.172;2022-08-01T06:49:06;30.50;99.90
3035;DHT22;1527;48.836;9.172;2022-08-01T06:51:36;30.60;99.90
3035;DHT22;1527;48.836;9.172;2022-08-01T06:54:07;30.70;99.90
3035;DHT22;1527;48.836;9.172;2022-08-01T06:56:36;30.80;99.90
3035;DHT22;1527;48.836;9.172;2022-08-01T06:59:09;30.50;99.60
3035;DHT22;1527;48.836;9.172;2022-08-01T07:01:38;30.30;99.90
3035;DHT22;1527;48.836;9.172;2022-08-01T07:04:10;30.00;99.90
3035;DHT22;1527;48.836;9.172;2022-08-01T07:06:40;29.90;99.90
3035;DHT22;1527;48.836;9.172;2022-08-01T07:09:13;29.80;99.90
3035;DHT22;1527;48.836;9.172;2022-08-01T07:11:42;29.70;99.90
3035;DHT22;1527;48.836;9.172;2022-08-01T07:14:11;29.10;99.90
3035;DHT22;1527;48.836;9.172;2022-08-01T07:16:41;28.70;99.90
3035;DHT22;1527;48.836;9.172;2022-08-01T07:19:11;28.70;99.90
3035;DHT22;1527;48.836;9.172;2022-08-01T07:21:42;28.70;99.90
3035;DHT22;1527;48.836;9.172;2022-08-01T07:24:18;28.70;99.90
3035;DHT22;1527;48.836;9.172;2022-08-01T07:26:48;28.60;99.90
3035;DHT22;1527;48.836;9.172;2022-08-01T07:29:25;28.50;99.90
3035;DHT22;1527;48.836;9.172;2022-08-01T07:31:56;28.50;99.90
3035;DHT22;1527;48.836;9.172;2022-08-01T07:34:26;28.00;99.90
3035;DHT22;1527;48.836;9.172;2022-08-01T07:36:56;28.00;99.90
3035;DHT22;1527;48.836;9.172;2022-08-01T07:39:35;28.20;99.90
3035;DHT22;1527;48.836;9.172;2022-08-01T07:42:05;28.50;99.90
3035;DHT22;1527;48.836;9.172;2022-08-01T07:44:36;28.60;99.90
3035;DHT22;1527;48.836;9.172;2022-08-01T07:47:05;28.80;99.90
3035;DHT22;1527;48.836;9.172;2022-08-01T07:49:35;28.80;99.90
3035;DHT22;1527;48.836;9.172;2022-08-01T07:52:08;28.90;99.90
3035;DHT22;1527;48.836;9.172;2022-08-01T07:54:38;28.90;99.90
3035;DHT22;1527;48.836;9.172;2022-08-01T07:57:11;29.00;99.90
3035;DHT22;1527;48.836;9.172;2022-08-01T07:59:40;28.80;99.90
3035;DHT22;1527;48.836;9.172;2022-08-01T08:02:09;28.40;99.90
3035;DHT22;1527;48.836;9.172;2022-08-01T08:04:39;28.60;99.90
3035;DHT22;1527;48.836;9.172;2022-08-01T08:07:15;28.20;99.90
3035;DHT22;1527;48.836;9.172;2022-08-01T08:09:45;27.90;99.90
3035;DHT22;1527;48.836;9.172;2022-08-01T08:12:18;27.70;99.90
3035;DHT22;1527;48.836;9.172;2022-08-01T08:14:56;27.60;99.90
3035;DHT22;1527;48.836;9.172;2022-08-01T08:17:27;27.50;99.90
3035;DHT22;1527;48.836;9.172;2022-08-01T08:20:04;27.60;99.90
3035;DHT22;1527;48.836;9.172;2022-08-01T08:22:36;27.60;99.90
3035;DHT22;1527;48.836;9.172;2022-08-01T08:25:08;27.50;99.90
3035;DHT22;1527;48.836;9.172;2022-08-01T08:27:38;27.20;99.90
3035;DHT22;1527;48.836;9.172;2022-08-01T08:30:08;27.20;99.90
3035;DHT22;1527;48.836;9.172;2022-08-01T08:32:39;27.20;99.90
3035;DHT22;1527;48.836;9.172;2022-08-01T08:35:09;27.20;99.90
3035;DHT22;1527;48.836;9.172;2022-08-01T08:37:42;27.30;99.90
3035;DHT22;1527;48.836;9.172;2022-08-01T08:40:17;27.50;99.90
3035;DHT22;1527;48.836;9.172;2022-08-01T08:42:47;27.70;99.90
3035;DHT22;1527;48.836;9.172;2022-08-01T08:45:17;27.80;99.90
3035;DHT22;1527;48.836;9.172;2022-08-01T08:47:56;27.70;99.90
3035;DHT22;1527;48.836;9.172;2022-08-01T08:50:28;27.70;99.90
3035;DHT22;1527;48.836;9.172;2022-08-01T08:52:58;27.80;99.90
3035;DHT22;1527;48.836;9.172;2022-08-01T08:55:35;27.80;99.90
3035;DHT22;1527;48.836;9.172;2022-08-01T08:58:25;27.50;99.90
3035;DHT22;1527;48.836;9.172;2022-08-01T09:00:59;27.20;99.90
3035;DHT22;1527;48.836;9.172;2022-08-01T09:03:29;27.30;99.90
3035;DHT22;1527;48.836;9.172;2022-08-01T09:05:58;27.40;99.90
3035;DHT22;1527;48.836;9.172;2022-08-01T09:08:28;27.40;99.90
3035;DHT22;1527;48.836;9.172;2022-08-01T09:10:59;27.40;99.90
3035;DHT22;1527;48.836;9.172;2022-08-01T09:13:28;27.30;99.90
3035;DHT22;1527;48.836;9.172;2022-08-01T09:15:57;27.30;99.90
3035;DHT22;1527;48.836;9.172;2022-08-01T09:18:30;27.30;99.90
3035;DHT22;1527;48.836;9.172;2022-08-01T09:21:13;27.40;99.90
3035;DHT22;1527;48.836;9.172;2022-08-01T09:23:46;27.50;99.90
3035;DHT22;1527;48.836;9.172;2022-08-01T09:26:29;27.50;99.90
3035;DHT22;1527;48.836;9.172;2022-08-01T09:29:03;27.40;99.90
3035;DHT22;1527;48.836;9.172;2022-08-01T09:31:40;27.30;99.90
3035;DHT22;1527;48.836;9.172;2022-08-01T09:34:15;27.40;99.90
3035;DHT22;1527;48.836;9.172;2022-08-01T09:36:48;27.40;99.90
3035;DHT22;1527;48.836;9.172;2022-08-01T09:39:24;27.10;99.90
3035;DHT22;1527;48.836;9.172;2022-08-01T09:41:58;27.00;99.90
3035;DHT22;1527;48.836;9.172;2022-08-01T09:44:39;26.90;99.90
3035;DHT22;1527;48.836;9.172;2022-08-01T09:47:22;27.00;99.90
3035;DHT22;1527;48.836;9.172;2022-08-01T09:50:06;27.10;99.90
3035;DHT22;1527;48.836;9.172;2022-08-01T09:52:38;27.10;99.90
3035;DHT22;1527;48.836;9.172;2022-08-01T09:55:10;27.10;99.90
3035;DHT22;1527;48.836;9.172;2022-08-01T10:02:30;27.40;99.90
3035;DHT22;1527;48.836;9.172;2022-08-01T10:05:02;27.50;99.90
3035;DHT22;1527;48.836;9.172;2022-08-01T10:07:36;27.60;99.90
3035;DHT22;1527;48.836;9.172;2022-08-01T10:10:25;27.40;99.90
3035;DHT22;1527;48.836;9.172;2022-08-01T10:12:59;27.40;99.90
3035;DHT22;1527;48.836;9.172;2022-08-01T10:15:30;27.60;99.90
3035;DHT22;1527;48.836;9.172;2022-08-01T10:18:06;27.60;99.90
3035;DHT22;1527;48.836;9.172;2022-08-01T10:20:52;27.80;99.90
3035;DHT22;1527;48.836;9.172;2022-08-01T10:23:25;27.90;99.90
3035;DHT22;1527;48.836;9.172;2022-08-01T10:26:08;28.00;99.90
3035;DHT22;1527;48.836;9.172;2022-08-01T10:28:40;27.70;99.90
3035;DHT22;1527;48.836;9.172;2022-08-01T10:31:11;27.60;99.90
3035;DHT22;1527;48.836;9.172;2022-08-01T10:33:43;27.50;99.90
3035;DHT22;1527;48.836;9.172;2022-08-01T10:36:20;27.60;99.90
3035;DHT22;1527;48.836;9.172;2022-08-01T10:38:53;27.70;99.90
3035;DHT22;1527;48.836;9.172;2022-08-01T10:41:24;27.90;99.90
3035;DHT22;1527;48.836;9.172;2022-08-01T10:43:55;27.90;99.90
3035;DHT22;1527;48.836;9.172;2022-08-01T10:46:25;28.00;99.90
3035;DHT22;1527;48.836;9.172;2022-08-01T10:49:01;28.10;99.90
3035;DHT22;1527;48.836;9.172;2022-08-01T10:51:34;27.80;99.90
3035;DHT22;1527;48.836;9.172;2022-08-01T10:54:25;28.00;99.90
3035;DHT22;1527;48.836;9.172;2022-08-01T10:56:54;28.20;99.90
3035;DHT22;1527;48.836;9.172;2022-08-01T10:59:29;28.10;99.90
3035;DHT22;1527;48.836;9.172;2022-08-01T11:02:26;28.10;99.90
3035;DHT22;1527;48.836;9.172;2022-08-01T11:05:02;28.10;99.90
3035;DHT22;1527;48.836;9.172;2022-08-01T11:07:43;28.40;99.90
3035;DHT22;1527;48.836;9.172;2022-08-01T11:10:22;28.40;99.90
3035;DHT22;1527;48.836;9.172;2022-08-01T11:12:53;28.60;99.90
3035;DHT22;1527;48.836;9.172;2022-08-01T11:15:24;28.50;99.90
3035;DHT22;1527;48.836;9.172;2022-08-01T11:17:59;28.50;99.90
3035;DHT22;1527;48.836;9.172;2022-08-01T11:20:36;28.60;99.90
3035;DHT22;1527;48.836;9.172;2022-08-01T11:23:19;28.60;99.90
3035;DHT22;1527;48.836;9.172;2022-08-01T11:26:13;28.40;99.90
3035;DHT22;1527;48.836;9.172;2022-08-01T11:29:15;28.60;99.90
3035;DHT22;1527;48.836;9.172;2022-08-01T11:31:49;28.70;99.90
3035;DHT22;1527;48.836;9.172;2022-08-01T11:34:20;28.70;99.90
3035;DHT22;1527;48.836;9.172;2022-08-01T11:37:29;28.90;99.90
3035;DHT22;1527;48.836;9.172;2022-08-01T11:40:37;28.90;99.90
3035;DHT22;1527;48.836;9.172;2022-08-01T11:43:17;29.10;99.90
3035;DHT22;1527;48.836;9.172;2022-08-01T11:45:48;29.40;99.90
3035;DHT22;1527;48.836;9.172;2022-08-01T11:48:20;29.30;99.90
3035;DHT22;1527;48.836;9.172;2022-08-01T11:50:57;29.10;99.90
3035;DHT22;1527;48.836;9.172;2022-08-01T11:53:31;29.00;99.90
3035;DHT22;1527;48.836;9.172;2022-08-01T11:56:03;28.90;99.90
3035;DHT22;1527;48.836;9.172;2022-08-01T11:58:33;28.90;99.90
3035;DHT22;1527;48.836;9.172;2022-08-01T12:01:02;29.20;99.90
3035;DHT22;1527;48.836;9.172;2022-08-01T12:03:33;29.30;99.90
3035;DHT22;1527;48.836;9.172;2022-08-01T12:06:12;29.40;99.90
3035;DHT22;1527;48.836;9.172;2022-08-01T12:09:15;29.50;99.90
3035;DHT22;1527;48.836;9.172;2022-08-01T12:11:52;29.70;99.90
3035;DHT22;1527;48.836;9.172;2022-08-01T12:14:21;30.10;99.90
3035;DHT22;1527;48.836;9.172;2022-08-01T12:16:54;30.10;99.90
3035;DHT22;1527;48.836;9.172;2022-08-01T12:19:24;30.10;99.90
3035;DHT22;1527;48.836;9.172;2022-08-01T12:22:10;30.10;99.90
3035;DHT22;1527;48.836;9.172;2022-08-01T12:24:42;30.10;99.90
3035;DHT22;1527;48.836;9.172;2022-08-01T12:27:23;29.90;99.90
3035;DHT22;1527;48.836;9.172;2022-08-01T12:29:54;29.70;99.90
3035;DHT22;1527;48.836;9.172;2022-08-01T12:32:34;29.70;99.90
3035;DHT22;1527;48.836;9.172;2022-08-01T12:35:06;29.80;99.90
3035;DHT22;1527;48.836;9.172;2022-08-01T12:37:37;29.70;99.90
3035;DHT22;1527;48.836;9.172;2022-08-01T12:40:16;29.80;99.90
3035;DHT22;1527;48.836;9.172;2022-08-01T12:42:56;29.90;99.90
3035;DHT22;1527;48.836;9.172;2022-08-01T12:46:05;29.80;99.90
3035;DHT22;1527;48.836;9.172;2022-08-01T12:48:37;29.80;99.90
3035;DHT22;1527;48.836;9.172;2022-08-01T12:51:07;29.70;99.90
3035;DHT22;1527;48.836;9.172;2022-08-01T12:53:37;29.70;99.90
3035;DHT22;1527;48.836;9.172;2022-08-01T12:56:10;29.60;99.90
3035;DHT22;1527;48.836;9.172;2022-08-01T12:58:53;29.60;99.90
3035;DHT22;1527;48.836;9.172;2022-08-01T13:01:33;29.60;99.90
3035;DHT22;1527;48.836;9.172;2022-08-01T13:04:03;29.70;99.90
3035;DHT22;1527;48.836;9.172;2022-08-01T13:06:33;29.70;99.90
3035;DHT22;1527;48.836;9.172;2022-08-01T13:09:06;29.70;99.90
3035;DHT22;1527;48.836;9.172;2022-08-01T13:11:38;29.60;99.90
3035;DHT22;1527;48.836;9.172;2022-08-01T13:14:28;29.50;99.90
3035;DHT22;1527;48.836;9.172;2022-08-01T13:16:57;29.20;99.90
3035;DHT22;1527;48.836;9.172;2022-08-01T13:19:41;29.10;99.90
3035;DHT22;1527;48.836;9.172;2022-08-01T13:22:11;29.30;99.90
3035;DHT22;1527;48.836;9.172;2022-08-01T13:24:40;29.30;99.90
3035;DHT22;1527;48.836;9.172;2022-08-01T13:27:20;29.40;99.90
3035;DHT22;1527;48.836;9.172;2022-08-01T13:29:51;29.30;99.90
3035;DHT22;1527;48.836;9.172;2022-08-01T13:32:21;29.20;99.90
3035;DHT22;1527;48.836;9.172;2022-08-01T13:35:01;29.20;99.90
3035;DHT22;1527;48.836;9.172;2022-08-01T13:37:31;29.40;99.90
3035;DHT22;1527;48.836;9.172;2022-08-01T13:40:04;29.40;99.90
3035;DHT22;1527;48.836;9.172;2022-08-01T13:42:35;29.60;99.90
3035;DHT22;1527;48.836;9.172;2022-08-01T13:45:06;29.70;99.90
3035;DHT22;1527;48.836;9.172;2022-08-01T13:47:41;29.70;99.90
3035;DHT22;1527;48.836;9.172;2022-08-01T13:50:31;29.50;99.90
3035;DHT22;1527;48.836;9.172;2022-08-01T13:53:00;29.30;99.90
3035;DHT22;1527;48.836;9.172;2022-08-01T13:55:29;29.10;99.90
3035;DHT22;1527;48.836;9.172;2022-08-01T13:58:03;29.00;99.90
3035;DHT22;1527;48.836;9.172;2022-08-01T14:00:32;28.80;99.90
3035;DHT22;1527;48.836;9.172;2022-08-01T14:03:01;28.80;99.90
3035;DHT22;1527;48.836;9.172;2022-08-01T14:05:31;28.90;99.90
3035;DHT22;1527;48.836;9.172;2022-08-01T14:08:00;28.90;99.90
3035;DHT22;1527;48.836;9.172;2022-08-01T14:10:31;28.90;99.90
3035;DHT22;1527;48.836;9.172;2022-08-01T14:13:00;29.10;99.90
3035;DHT22;1527;48.836;9.172;2022-08-01T14:15:34;29.00;99.90
3035;DHT22;1527;48.836;9.172;2022-08-01T14:18:06;29.00;99.90
3035;DHT22;1527;48.836;9.172;2022-08-01T14:20:38;29.00;99.90
3035;DHT22;1527;48.836;9.172;2022-08-01T14:23:08;28.90;99.90
3035;DHT22;1527;48.836;9.172;2022-08-01T14:25:38;29.10;99.90
3035;DHT22;1527;48.836;9.172;2022-08-01T14:28:29;29.10;99.90
3035;DHT22;1527;48.836;9.172;2022-08-01T14:30:59;29.20;99.90
3035;DHT22;1527;48.836;9.172;2022-08-01T14:33:30;29.30;99.90
3035;DHT22;1527;48.836;9.172;2022-08-01T14:36:01;29.40;99.90
3035;DHT22;1527;48.836;9.172;2022-08-01T14:38:50;29.30;99.90
3035;DHT22;1527;48.836;9.172;2022-08-01T14:41:20;29.00;99.90
3035;DHT22;1527;48.836;9.172;2022-08-01T14:43:49;29.00;99.90
3035;DHT22;1527;48.836;9.172;2022-08-01T14:46:19;29.20;99.90
3035;DHT22;1527;48.836;9.172;2022-08-01T14:48:49;29.20;99.90
3035;DHT22;1527;48.836;9.172;2022-08-01T14:51:18;29.40;99.90
3035;DHT22;1527;48.836;9.172;2022-08-01T14:53:47;29.50;99.90
3035;DHT22;1527;48.836;9.172;2022-08-01T14:56:19;29.60;99.90
3035;DHT22;1527;48.836;9.172;2022-08-01T14:58:49;29.50;99.90
3035;DHT22;1527;48.836;9.172;2022-08-01T15:01:22;29.40;99.90
3035;DHT22;1527;48.836;9.172;2022-08-01T15:03:51;29.30;99.90
3035;DHT22;1527;48.836;9.172;2022-08-01T15:06:20;29.50;99.90
3035;DHT22;1527;48.836;9.172;2022-08-01T15:08:50;29.50;99.90
3035;DHT22;1527;48.836;9.172;2022-08-01T15:11:19;29.40;99.90
3035;DHT22;1527;48.836;9.172;2022-08-01T15:13:48;29.50;99.90
3035;DHT22;1527;48.836;9.172;2022-08-01T15:16:39;29.50;99.80
3035;DHT22;1527;48.836;9.172;2022-08-01T15:19:10;29.40;99.90
3035;DHT22;1527;48.836;9.172;2022-08-01T15:21:39;29.50;99.90
3035;DHT22;1527;48.836;9.172;2022-08-01T15:24:09;29.60;99.90
3035;DHT22;1527;48.836;9.172;2022-08-01T15:26:39;29.40;99.80
3035;DHT22;1527;48.836;9.172;2022-08-01T15:29:14;29.50;99.90
3035;DHT22;1527;48.836;9.172;2022-08-01T15:31:45;29.60;99.90
3035;DHT22;1527;48.836;9.172;2022-08-01T15:34:15;29.70;99.40
3035;DHT22;1527;48.836;9.172;2022-08-01T15:36:45;29.70;99.20
3035;DHT22;1527;48.836;9.172;2022-08-01T15:39:16;29.50;99.10
3035;DHT22;1527;48.836;9.172;2022-08-01T15:41:47;29.30;99.30
3035;DHT22;1527;48.836;9.172;2022-08-01T15:44:18;29.30;99.10
3035;DHT22;1527;48.836;9.172;2022-08-01T15:46:54;29.30;99.30
3035;DHT22;1527;48.836;9.172;2022-08-01T15:49:24;29.30;99.60
3035;DHT22;1527;48.836;9.172;2022-08-01T15:51:53;29.30;99.10
3035;DHT22;1527;48.836;9.172;2022-08-01T15:54:22;29.10;99.10
3035;DHT22;1527;48.836;9.172;2022-08-01T15:56:54;29.10;99.10
3035;DHT22;1527;48.836;9.172;2022-08-01T15:59:24;29.10;99.00
3035;DHT22;1527;48.836;9.172;2022-08-01T16:01:57;29.10;99.30
3035;DHT22;1527;48.836;9.172;2022-08-01T16:04:26;29.10;99.30
3035;DHT22;1527;48.836;9.172;2022-08-01T16:07:01;29.60;99.60
3035;DHT22;1527;48.836;9.172;2022-08-01T16:09:30;29.10;99.30
3035;DHT22;1527;48.836;9.172;2022-08-01T16:11:59;29.00;99.50
3035;DHT22;1527;48.836;9.172;2022-08-01T16:14:29;28.90;99.50
3035;DHT22;1527;48.836;9.172;2022-08-01T16:17:02;28.90;99.40
3035;DHT22;1527;48.836;9.172;2022-08-01T16:19:34;28.70;99.40
3035;DHT22;1527;48.836;9.172;2022-08-01T16:22:03;28.80;99.60
3035;DHT22;1527;48.836;9.172;2022-08-01T16:24:36;28.90;99.40
3035;DHT22;1527;48.836;9.172;2022-08-01T16:27:05;29.00;99.30
3035;DHT22;1527;48.836;9.172;2022-08-01T16:29:34;28.90;99.20
3035;DHT22;1527;48.836;9.172;2022-08-01T16:32:05;28.90;99.60
3035;DHT22;1527;48.836;9.172;2022-08-01T16:34:52;28.90;99.70
3035;DHT22;1527;48.836;9.172;2022-08-01T16:37:22;29.10;99.50
3035;DHT22;1527;48.836;9.172;2022-08-01T16:39:51;29.10;99.50
3035;DHT22;1527;48.836;9.172;2022-08-01T16:42:23;29.00;99.40
3035;DHT22;1527;48.836;9.172;2022-08-01T16:44:54;28.90;99.50
3035;DHT22;1527;48.836;9.172;2022-08-01T16:47:27;28.80;99.30
3035;DHT22;1527;48.836;9.172;2022-08-01T16:49:57;28.80;99.50